createdAt,value
2023-03-03T00:01:11.204Z,-0.30
2023-03-03T00:03:40.222Z,-0.30
2023-03-03T00:06:13.418Z,-0.40
2023-03-03T00:08:42.788Z,-0.50
2023-03-03T00:11:12.467Z,-0.50
2023-03-03T00:13:47.886Z,-0.50
2023-03-03T00:16:22.459Z,-0.50
2023-03-03T00:18:52.424Z,-0.60
2023-03-03T00:21:30.655Z,-0.60
2023-03-03T00:24:23.196Z,-0.70
2023-03-03T00:26:55.533Z,-0.80
2023-03-03T00:29:42.036Z,-0.70
2023-03-03T00:32:25.297Z,-0.60
2023-03-03T00:34:55.375Z,-0.70
2023-03-03T00:37:34.034Z,-0.60
2023-03-03T00:40:21.390Z,-0.70
2023-03-03T00:42:53.448Z,-0.70
2023-03-03T00:45:41.944Z,-0.70
2023-03-03T00:48:28.358Z,-0.70
2023-03-03T00:50:58.549Z,-0.70
2023-03-03T00:53:29.657Z,-0.80
2023-03-03T00:55:59.057Z,-0.80
2023-03-03T00:58:30.978Z,-0.70
2023-03-03T01:01:01.976Z,-0.80
2023-03-03T01:03:46.103Z,-0.80
2023-03-03T01:06:15.466Z,-0.70
2023-03-03T01:08:45.161Z,-0.70
2023-03-03T01:11:18.914Z,-0.80
2023-03-03T01:13:50.033Z,-0.70
2023-03-03T01:16:20.826Z,-0.80
2023-03-03T01:18:49.833Z,-0.80
2023-03-03T01:21:18.742Z,-0.80
2023-03-03T01:23:47.562Z,-0.80
2023-03-03T01:26:16.423Z,-0.80
2023-03-03T01:28:45.245Z,-0.70
2023-03-03T01:31:14.182Z,-0.70
2023-03-03T01:33:45.001Z,-0.70
2023-03-03T01:36:13.846Z,-0.80
2023-03-03T01:38:43.938Z,-0.80
2023-03-03T01:41:12.919Z,-0.80
2023-03-03T01:43:46.615Z,-0.70
2023-03-03T01:46:50.115Z,-0.70
2023-03-03T01:49:27.480Z,-0.70
2023-03-03T01:51:59.587Z,-0.70
2023-03-03T01:54:32.257Z,-0.70
2023-03-03T01:57:04.126Z,-0.80
2023-03-03T01:59:36.514Z,-0.80
2023-03-03T02:02:06.157Z,-0.80
2023-03-03T02:04:37.502Z,-0.80
2023-03-03T02:07:11.110Z,-0.80
2023-03-03T02:09:47.910Z,-0.90
2023-03-03T02:12:20.722Z,-0.90
2023-03-03T02:14:49.792Z,-0.90
2023-03-03T02:17:18.863Z,-0.90
2023-03-03T02:19:59.606Z,-1.00
2023-03-03T02:22:37.393Z,-1.00
2023-03-03T02:25:09.250Z,-1.00
2023-03-03T02:27:39.945Z,-1.10
2023-03-03T02:30:17.973Z,-1.00
2023-03-03T02:32:46.908Z,-0.90
2023-03-03T02:35:33.105Z,-1.10
2023-03-03T02:38:11.028Z,-1.00
2023-03-03T02:40:46.211Z,-1.00
2023-03-03T02:43:19.739Z,-1.00
2023-03-03T02:45:48.814Z,-1.00
2023-03-03T02:48:17.899Z,-1.00
2023-03-03T02:50:46.874Z,-1.00
2023-03-03T02:53:15.695Z,-1.00
2023-03-03T02:55:44.824Z,-1.00
2023-03-03T02:58:13.847Z,-1.00
2023-03-03T03:00:47.777Z,-1.00
2023-03-03T03:03:21.217Z,-1.00
2023-03-03T03:05:50.684Z,-1.00
2023-03-03T03:08:22.373Z,-1.00
2023-03-03T03:10:51.630Z,-1.00
2023-03-03T03:13:20.540Z,-1.00
2023-03-03T03:15:52.427Z,-1.00
2023-03-03T03:18:21.532Z,-1.00
2023-03-03T03:20:52.115Z,-1.10
2023-03-03T03:23:22.177Z,-1.10
2023-03-03T03:25:51.553Z,-1.20
2023-03-03T03:28:27.631Z,-1.10
2023-03-03T03:30:58.350Z,-1.20
2023-03-03T03:33:29.136Z,-1.10
2023-03-03T03:36:00.904Z,-1.00
2023-03-03T03:38:31.668Z,-1.10
2023-03-03T03:41:01.358Z,-1.20
2023-03-03T03:43:30.592Z,-1.20
2023-03-03T03:46:01.542Z,-1.30
2023-03-03T03:48:31.668Z,-1.30
2023-03-03T03:51:01.309Z,-1.30
2023-03-03T03:53:30.756Z,-1.40
2023-03-03T03:55:59.708Z,-1.40
2023-03-03T03:58:28.854Z,-1.40
2023-03-03T04:01:06.413Z,-1.40
2023-03-03T04:03:37.852Z,-1.40
2023-03-03T04:06:11.208Z,-1.30
2023-03-03T04:08:40.392Z,-1.20
2023-03-03T04:11:11.136Z,-1.20
2023-03-03T04:13:40.056Z,-1.20
2023-03-03T04:16:12.809Z,-1.20
2023-03-03T04:18:46.398Z,-1.10
2023-03-03T04:21:17.341Z,-1.30
2023-03-03T04:23:47.910Z,-1.30
2023-03-03T04:26:25.018Z,-1.30
2023-03-03T04:28:54.071Z,-1.40
2023-03-03T04:31:26.649Z,-1.40
2023-03-03T04:33:56.489Z,-1.30
2023-03-03T04:36:26.469Z,-1.30
2023-03-03T04:38:55.481Z,-1.40
2023-03-03T04:41:24.773Z,-1.40
2023-03-03T04:43:54.618Z,-1.40
2023-03-03T04:46:23.588Z,-1.40
2023-03-03T04:48:55.477Z,-1.40
2023-03-03T04:51:24.922Z,-1.50
2023-03-03T04:53:53.853Z,-1.50
2023-03-03T04:56:22.618Z,-1.50
2023-03-03T04:58:52.434Z,-1.50
2023-03-03T05:01:21.464Z,-1.50
2023-03-03T05:03:50.513Z,-1.50
2023-03-03T05:06:21.453Z,-1.50
2023-03-03T05:08:50.362Z,-1.50
2023-03-03T05:11:19.239Z,-1.50
2023-03-03T05:13:48.182Z,-1.40
2023-03-03T05:16:17.183Z,-1.40
2023-03-03T05:18:47.518Z,-1.40
2023-03-03T05:21:16.457Z,-1.40
2023-03-03T05:23:46.649Z,-1.40
2023-03-03T05:26:15.640Z,-1.50
2023-03-03T05:28:44.380Z,-1.50
2023-03-03T05:31:13.308Z,-1.40
2023-03-03T05:33:42.172Z,-1.40
2023-03-03T05:36:11.299Z,-1.40
2023-03-03T05:38:40.081Z,-1.40
2023-03-03T05:41:10.403Z,-1.30
2023-03-03T05:43:39.362Z,-1.30
2023-03-03T05:46:08.207Z,-1.40
2023-03-03T05:48:37.099Z,-1.40
2023-03-03T05:51:06.621Z,-1.30
2023-03-03T05:53:35.584Z,-1.40
2023-03-03T05:56:04.825Z,-1.40
2023-03-03T05:58:35.053Z,-1.40
2023-03-03T06:01:03.973Z,-1.50
2023-03-03T06:03:33.460Z,-1.50
2023-03-03T06:06:02.381Z,-1.40
2023-03-03T06:08:32.505Z,-1.50
2023-03-03T06:11:01.521Z,-1.40
2023-03-03T06:13:30.962Z,-1.50
2023-03-03T06:16:01.221Z,-1.50
2023-03-03T06:18:30.041Z,-1.50
2023-03-03T06:20:58.794Z,-1.40
2023-03-03T06:23:27.650Z,-1.30
2023-03-03T06:25:56.370Z,-1.40
2023-03-03T06:28:26.224Z,-1.40
2023-03-03T06:30:55.584Z,-1.30
2023-03-03T06:33:25.782Z,-1.30
2023-03-03T06:35:55.496Z,-1.30
2023-03-03T06:38:24.330Z,-1.40
2023-03-03T06:40:53.144Z,-1.30
2023-03-03T06:43:22.004Z,-1.30
2023-03-03T06:45:50.790Z,-1.40
2023-03-03T06:48:19.627Z,-1.30
2023-03-03T06:50:49.829Z,-1.30
2023-03-03T06:53:20.046Z,-1.20
2023-03-03T06:55:48.896Z,-1.20
2023-03-03T06:58:19.462Z,-1.20
2023-03-03T07:00:53.444Z,-1.20
2023-03-03T07:03:25.935Z,-1.20
2023-03-03T07:05:56.069Z,-1.20
2023-03-03T07:08:25.918Z,-1.10
2023-03-03T07:10:55.278Z,-1.10
2023-03-03T07:13:26.233Z,-1.00
2023-03-03T07:15:56.416Z,-1.00
2023-03-03T07:18:36.553Z,-0.90
2023-03-03T07:21:17.769Z,-0.90
2023-03-03T07:23:48.476Z,-1.10
2023-03-03T07:26:20.022Z,-1.10
2023-03-03T07:28:54.047Z,-1.00
2023-03-03T07:31:36.819Z,-1.10
2023-03-03T07:34:18.202Z,-1.10
2023-03-03T07:36:48.797Z,-1.20
2023-03-03T07:39:29.530Z,-1.20
2023-03-03T07:42:13.732Z,-1.20
2023-03-03T07:44:43.116Z,-1.20
2023-03-03T07:47:21.449Z,-1.10
2023-03-03T07:49:51.698Z,-1.00
2023-03-03T07:52:27.404Z,-1.00
2023-03-03T07:54:58.077Z,-1.00
2023-03-03T07:57:29.105Z,-1.00
2023-03-03T08:00:03.421Z,-1.10
2023-03-03T08:02:44.797Z,-1.00
2023-03-03T08:05:41.099Z,-1.00
2023-03-03T08:08:30.602Z,-0.90
2023-03-03T08:11:00.352Z,-0.80
2023-03-03T08:13:37.752Z,-1.10
2023-03-03T08:16:27.163Z,-1.00
2023-03-03T08:18:58.325Z,-1.10
2023-03-03T08:21:28.021Z,-1.10
2023-03-03T08:23:58.158Z,-0.90
2023-03-03T08:26:27.533Z,-0.90
2023-03-03T08:28:56.364Z,-0.80
2023-03-03T08:31:39.695Z,-0.70
2023-03-03T08:34:10.157Z,-0.70
2023-03-03T08:36:38.876Z,-0.80
2023-03-03T08:39:09.374Z,-0.70
2023-03-03T08:41:39.169Z,-0.70
2023-03-03T08:44:07.978Z,-0.80
2023-03-03T08:46:37.004Z,-0.70
2023-03-03T08:49:05.949Z,-0.80
2023-03-03T08:51:35.292Z,-0.80
2023-03-03T08:54:04.187Z,-0.70
2023-03-03T08:56:34.320Z,-0.70
2023-03-03T08:59:03.500Z,-0.60
2023-03-03T09:01:33.182Z,-0.60
2023-03-03T09:04:02.257Z,-0.60
2023-03-03T09:06:31.125Z,-0.50
2023-03-03T09:09:00.056Z,-0.50
2023-03-03T09:11:30.678Z,-0.40
2023-03-03T09:14:08.464Z,-0.40
2023-03-03T09:16:41.091Z,-0.40
2023-03-03T09:19:24.036Z,-0.30
2023-03-03T09:21:54.821Z,-0.20
2023-03-03T09:24:27.810Z,-0.10
2023-03-03T09:26:58.893Z,-0.10
2023-03-03T09:29:30.294Z,-0.10
2023-03-03T09:32:02.282Z,-0.10
2023-03-03T09:34:41.074Z,0.10
2023-03-03T09:37:23.040Z,0.00
2023-03-03T09:39:53.050Z,-0.10
2023-03-03T09:42:46.769Z,-0.10
2023-03-03T09:45:39.937Z,-0.10
2023-03-03T09:48:44.336Z,-0.10
2023-03-03T09:51:27.543Z,-0.20
2023-03-03T09:54:07.688Z,-0.10
2023-03-03T09:56:42.368Z,0.00
2023-03-03T09:59:32.062Z,0.00
2023-03-03T10:02:22.760Z,-0.10
2023-03-03T10:05:14.686Z,-0.10
2023-03-03T10:07:56.746Z,0.00
2023-03-03T10:10:52.061Z,0.00
2023-03-03T10:13:39.949Z,0.10
2023-03-03T10:16:27.895Z,0.10
2023-03-03T10:19:03.085Z,0.10
2023-03-03T10:21:37.994Z,1.30
2023-03-03T10:24:21.877Z,0.10
2023-03-03T10:27:13.409Z,0.20
2023-03-03T10:29:49.679Z,0.30
2023-03-03T10:32:46.074Z,0.30
2023-03-03T10:35:41.034Z,0.40
2023-03-03T10:38:29.345Z,0.40
2023-03-03T10:41:06.658Z,0.40
2023-03-03T10:43:56.557Z,0.50
2023-03-03T10:46:41.580Z,0.60
2023-03-03T10:49:21.160Z,0.50
2023-03-03T10:52:19.735Z,0.40
2023-03-03T10:55:05.528Z,0.40
2023-03-03T10:57:43.633Z,0.40
2023-03-03T11:00:25.087Z,0.40
2023-03-03T11:03:14.466Z,0.50
2023-03-03T11:05:51.391Z,0.50
2023-03-03T11:08:28.273Z,0.50
2023-03-03T11:11:06.844Z,0.60
2023-03-03T11:13:43.094Z,0.60
2023-03-03T11:16:24.902Z,0.60
2023-03-03T11:19:06.841Z,0.60
2023-03-03T11:21:42.960Z,0.50
2023-03-03T11:24:33.299Z,0.50
2023-03-03T11:27:35.874Z,0.50
2023-03-03T11:30:23.926Z,0.50
2023-03-03T11:32:58.870Z,0.50
2023-03-03T11:35:33.440Z,0.50
2023-03-03T11:38:14.649Z,0.60
2023-03-03T11:40:50.422Z,0.60
2023-03-03T11:43:36.105Z,0.60
2023-03-03T11:46:10.818Z,0.70
2023-03-03T11:48:52.840Z,0.60
2023-03-03T11:51:29.221Z,0.50
2023-03-03T11:54:05.025Z,0.60
2023-03-03T11:56:42.033Z,0.60
2023-03-03T11:59:42.133Z,0.70
2023-03-03T12:02:34.385Z,0.80
2023-03-03T12:05:09.420Z,0.80
2023-03-03T12:07:47.439Z,0.90
2023-03-03T12:10:24.756Z,0.90
2023-03-03T12:13:04.374Z,0.80
2023-03-03T12:15:42.686Z,0.80
2023-03-03T12:18:28.435Z,0.80
2023-03-03T12:21:13.270Z,0.80
2023-03-03T12:23:54.360Z,0.80
2023-03-03T12:26:30.558Z,1.00
2023-03-03T12:29:06.931Z,0.90
2023-03-03T12:31:47.718Z,1.10
2023-03-03T12:34:23.189Z,1.10
2023-03-03T12:37:18.128Z,1.10
2023-03-03T12:39:53.595Z,1.10
2023-03-03T12:42:32.338Z,1.00
2023-03-03T12:45:25.292Z,1.10
2023-03-03T12:48:01.213Z,1.10
2023-03-03T12:50:41.167Z,1.20
2023-03-03T12:53:22.950Z,1.30
2023-03-03T12:55:57.607Z,1.40
2023-03-03T12:58:41.340Z,1.30
2023-03-03T13:01:23.258Z,1.30
2023-03-03T13:04:05.255Z,1.20
2023-03-03T13:06:41.173Z,1.20
2023-03-03T13:09:29.617Z,1.20
2023-03-03T13:12:20.126Z,1.20
2023-03-03T13:14:57.722Z,1.20
2023-03-03T13:17:32.303Z,1.30
2023-03-03T13:20:03.872Z,1.30
2023-03-03T13:22:41.197Z,1.40
2023-03-03T13:25:34.846Z,1.40
2023-03-03T13:28:12.716Z,1.40
2023-03-03T13:30:48.653Z,1.30
2023-03-03T13:33:26.838Z,1.40
2023-03-03T13:35:59.135Z,1.40
2023-03-03T13:38:31.613Z,1.50
2023-03-03T13:41:16.085Z,1.60
2023-03-03T13:43:48.117Z,1.60
2023-03-03T13:46:28.006Z,1.60
2023-03-03T13:49:17.897Z,1.60
2023-03-03T13:51:54.451Z,1.70
2023-03-03T13:54:38.681Z,1.70
2023-03-03T13:57:16.652Z,1.60
2023-03-03T13:59:54.496Z,1.60
2023-03-03T14:02:46.068Z,1.60
2023-03-03T14:05:24.083Z,1.60
2023-03-03T14:07:58.825Z,1.60
2023-03-03T14:10:32.159Z,1.70
2023-03-03T14:13:06.450Z,1.70
2023-03-03T14:15:39.733Z,1.80
2023-03-03T14:18:25.136Z,1.80
2023-03-03T14:20:57.143Z,1.80
2023-03-03T14:23:33.024Z,1.80
2023-03-03T14:26:08.705Z,1.80
2023-03-03T14:28:42.172Z,1.80
2023-03-03T14:31:24.377Z,1.80
2023-03-03T14:34:15.490Z,1.80
2023-03-03T14:36:45.686Z,1.80
2023-03-03T14:39:33.226Z,1.80
2023-03-03T14:42:03.562Z,1.90
2023-03-03T14:44:37.015Z,1.90
2023-03-03T14:47:18.840Z,1.90
2023-03-03T14:49:47.746Z,1.90
2023-03-03T14:52:29.635Z,1.90
2023-03-03T14:55:00.449Z,1.80
2023-03-03T14:57:47.177Z,1.70
2023-03-03T15:00:31.429Z,1.60
2023-03-03T15:03:22.421Z,1.70
2023-03-03T15:05:52.529Z,1.70
2023-03-03T15:08:32.900Z,1.80
2023-03-03T15:11:15.625Z,1.80
2023-03-03T15:13:44.599Z,1.70
2023-03-03T15:16:19.471Z,1.60
2023-03-03T15:19:36.813Z,1.70
2023-03-03T15:22:14.561Z,1.70
2023-03-03T15:24:49.894Z,1.60
2023-03-03T15:27:25.692Z,1.70
2023-03-03T15:30:08.896Z,1.50
2023-03-03T15:32:45.138Z,1.60
2023-03-03T15:35:26.319Z,1.50
2023-03-03T15:38:03.993Z,1.50
2023-03-03T15:40:41.311Z,1.40
2023-03-03T15:43:21.349Z,1.40
2023-03-03T15:45:54.972Z,1.40
2023-03-03T15:48:42.926Z,1.40
2023-03-03T15:51:24.220Z,1.40
2023-03-03T15:54:19.655Z,1.40
2023-03-03T15:56:53.382Z,1.40
2023-03-03T15:59:52.974Z,1.30
2023-03-03T16:02:24.329Z,1.30
2023-03-03T16:05:01.412Z,1.30
2023-03-03T16:07:43.729Z,1.30
2023-03-03T16:10:25.535Z,1.30
2023-03-03T16:13:03.715Z,1.30
2023-03-03T16:15:50.791Z,1.30
2023-03-03T16:18:29.256Z,1.30
2023-03-03T16:21:15.254Z,1.30
2023-03-03T16:23:49.022Z,1.20
2023-03-03T16:26:29.853Z,1.10
2023-03-03T16:29:18.681Z,1.10
2023-03-03T16:31:52.712Z,1.10
2023-03-03T16:34:26.663Z,1.10
2023-03-03T16:37:04.627Z,1.10
2023-03-03T16:39:43.920Z,1.00
2023-03-03T16:42:23.699Z,1.00
2023-03-03T16:45:21.140Z,1.00
2023-03-03T16:48:04.208Z,1.00
2023-03-03T16:50:41.707Z,1.00
2023-03-03T16:53:20.569Z,0.90
2023-03-03T16:55:59.877Z,1.00
2023-03-03T16:58:41.870Z,1.00
2023-03-03T17:01:22.600Z,1.00
2023-03-03T17:04:00.990Z,1.00
2023-03-03T17:06:37.049Z,1.00
2023-03-03T17:09:46.783Z,1.00
2023-03-03T17:12:36.107Z,1.10
2023-03-03T17:15:31.013Z,1.10
2023-03-03T17:18:11.815Z,1.10
2023-03-03T17:20:48.406Z,1.10
2023-03-03T17:23:36.061Z,1.10
2023-03-03T17:26:24.275Z,1.20
2023-03-03T17:29:01.849Z,1.10
2023-03-03T17:31:36.267Z,1.10
2023-03-03T17:34:30.891Z,1.10
2023-03-03T17:37:07.518Z,1.10
2023-03-03T17:39:57.916Z,1.10
2023-03-03T17:42:35.404Z,1.10
2023-03-03T17:45:09.065Z,1.20
2023-03-03T17:47:59.490Z,1.10
2023-03-03T17:50:45.167Z,1.10
2023-03-03T17:53:38.074Z,1.10
2023-03-03T17:56:18.236Z,1.00
2023-03-03T17:59:05.182Z,1.10
2023-03-03T18:01:49.857Z,1.10
2023-03-03T18:04:37.812Z,1.00
2023-03-03T18:07:48.358Z,1.00
2023-03-03T18:10:54.126Z,1.00
2023-03-03T18:13:43.693Z,1.00
2023-03-03T18:16:20.346Z,1.00
2023-03-03T18:19:03.892Z,1.10
2023-03-03T18:21:40.084Z,1.10
2023-03-03T18:24:31.567Z,1.10
2023-03-03T18:27:30.396Z,1.10
2023-03-03T18:30:25.079Z,1.10
2023-03-03T18:33:13.551Z,1.10
2023-03-03T18:35:44.041Z,1.10
2023-03-03T18:38:35.713Z,1.10
2023-03-03T18:41:05.859Z,1.10
2023-03-03T18:43:59.057Z,1.10
2023-03-03T18:46:49.925Z,1.10
2023-03-03T18:49:19.721Z,1.10
2023-03-03T18:51:53.680Z,1.10
2023-03-03T18:54:31.003Z,1.10
2023-03-03T18:57:15.001Z,1.20
2023-03-03T18:59:55.897Z,1.10
2023-03-03T19:02:38.943Z,1.10
2023-03-03T19:05:19.441Z,1.10
2023-03-03T19:07:53.335Z,1.10
2023-03-03T19:10:51.913Z,1.10
2023-03-03T19:13:48.029Z,1.10
2023-03-03T19:16:36.814Z,1.10
2023-03-03T19:19:17.254Z,1.10
2023-03-03T19:21:51.215Z,1.20
2023-03-03T19:24:34.941Z,1.20
2023-03-03T19:27:31.507Z,1.20
2023-03-03T19:30:51.160Z,1.20
2023-03-03T19:33:34.927Z,1.30
2023-03-03T19:36:24.765Z,1.30
2023-03-03T19:39:10.008Z,1.30
2023-03-03T19:41:52.445Z,1.30
2023-03-03T19:44:40.729Z,1.20
2023-03-03T19:47:20.400Z,1.10
2023-03-03T19:50:01.906Z,1.10
2023-03-03T19:52:39.552Z,1.10
2023-03-03T19:55:23.382Z,1.00
2023-03-03T19:58:05.883Z,1.00
2023-03-03T20:00:43.064Z,1.00
2023-03-03T20:03:40.901Z,1.10
2023-03-03T20:06:25.444Z,1.00
2023-03-03T20:09:03.637Z,1.10
2023-03-03T20:11:49.162Z,1.00
2023-03-03T20:14:32.658Z,1.00
2023-03-03T20:17:18.457Z,1.00
2023-03-03T20:19:56.089Z,1.00
2023-03-03T20:22:35.413Z,0.90
2023-03-03T20:25:16.009Z,0.90
2023-03-03T20:27:53.621Z,0.80
2023-03-03T20:30:33.203Z,0.80
2023-03-03T20:33:13.245Z,0.90
2023-03-03T20:35:52.606Z,0.90
2023-03-03T20:38:28.702Z,0.90
2023-03-03T20:41:06.034Z,0.90
2023-03-03T20:43:54.456Z,1.00
2023-03-03T20:46:27.937Z,0.90
2023-03-03T20:49:21.060Z,0.90
2023-03-03T20:51:58.245Z,0.90
2023-03-03T20:54:39.833Z,0.90
2023-03-03T20:57:15.968Z,0.90
2023-03-03T20:59:53.050Z,0.90
2023-03-03T21:02:30.161Z,0.90
2023-03-03T21:05:14.720Z,0.90
2023-03-03T21:07:55.656Z,0.90
2023-03-03T21:10:28.311Z,0.90
2023-03-03T21:12:59.497Z,1.00
2023-03-03T21:15:30.849Z,1.00
2023-03-03T21:18:00.120Z,1.00
2023-03-03T21:20:32.040Z,1.00
2023-03-03T21:23:03.646Z,1.00
2023-03-03T21:25:53.626Z,1.10
2023-03-03T21:28:27.147Z,1.10
2023-03-03T21:31:17.293Z,1.10
2023-03-03T21:33:49.534Z,1.10
2023-03-03T21:36:20.925Z,1.20
2023-03-03T21:38:50.453Z,1.20
2023-03-03T21:41:21.613Z,1.20
2023-03-03T21:43:52.167Z,1.20
2023-03-03T21:46:21.379Z,1.20
2023-03-03T21:48:50.842Z,1.20
2023-03-03T21:51:20.491Z,1.20
2023-03-03T21:53:49.293Z,1.30
2023-03-03T21:56:18.118Z,1.30
2023-03-03T21:58:48.234Z,1.30
2023-03-03T22:01:17.805Z,1.30
2023-03-03T22:03:46.833Z,1.30
2023-03-03T22:06:15.598Z,1.30
2023-03-03T22:08:44.436Z,1.40
2023-03-03T22:11:15.270Z,1.40
2023-03-03T22:13:44.387Z,1.40
2023-03-03T22:16:14.585Z,1.40
2023-03-03T22:18:45.137Z,1.40
2023-03-03T22:21:13.980Z,1.40
2023-03-03T22:23:42.754Z,1.40
2023-03-03T22:26:11.750Z,1.50
2023-03-03T22:28:42.034Z,1.40
2023-03-03T22:31:14.167Z,1.40
2023-03-03T22:33:42.996Z,1.50
2023-03-03T22:36:11.955Z,1.40
2023-03-03T22:38:41.123Z,1.40
2023-03-03T22:41:10.077Z,1.50
2023-03-03T22:43:38.977Z,1.50
2023-03-03T22:46:07.838Z,1.50
2023-03-03T22:48:38.747Z,1.50
2023-03-03T22:51:08.244Z,1.50
2023-03-03T22:53:38.319Z,1.50
2023-03-03T22:56:07.506Z,1.50
2023-03-03T22:58:49.157Z,1.50
2023-03-03T23:01:18.073Z,1.40
2023-03-03T23:03:50.125Z,1.60
2023-03-03T23:06:19.049Z,1.50
2023-03-03T23:08:47.790Z,1.60
2023-03-03T23:11:16.614Z,1.60
2023-03-03T23:13:45.411Z,1.50
2023-03-03T23:16:14.394Z,1.60
2023-03-03T23:18:43.424Z,1.60
2023-03-03T23:21:13.563Z,1.60
2023-03-03T23:23:42.296Z,1.70
2023-03-03T23:26:11.040Z,1.60
2023-03-03T23:28:39.881Z,1.70
2023-03-03T23:31:08.695Z,1.60
2023-03-03T23:33:37.516Z,1.60
2023-03-03T23:36:06.756Z,1.60
2023-03-03T23:38:36.973Z,1.70
2023-03-03T23:41:06.221Z,1.70
2023-03-03T23:43:35.157Z,1.70
2023-03-03T23:46:04.356Z,1.80
2023-03-03T23:48:33.145Z,1.80
2023-03-03T23:51:03.282Z,1.80
2023-03-03T23:53:32.061Z,1.80
2023-03-03T23:56:02.242Z,1.80
2023-03-03T23:58:31.087Z,1.80
